sensor_id;sensor_type;location;lat;lon;timestamp;pressure;altitude;pressure_sealevel;temperature;humidity
75051;BME280;63628;47.656;11.310;2024-03-22T00:01:16;95566.69;;;10.57;76.43
75051;BME280;63628;47.656;11.310;2024-03-22T00:03:42;95561.63;;;10.55;76.60
75051;BME280;63628;47.656;11.310;2024-03-22T00:06:08;95563.47;;;10.55;76.51
75051;BME280;63628;47.656;11.310;2024-03-22T00:08:33;95558.97;;;10.55;76.23
75051;BME280;63628;47.656;11.310;2024-03-22T00:10:59;95556.13;;;10.57;76.64
75051;BME280;63628;47.656;11.310;2024-03-22T00:13:24;95554.69;;;10.54;76.45
75051;BME280;63628;47.656;11.310;2024-03-22T00:15:50;95554.09;;;10.52;76.62
75051;BME280;63628;47.656;11.310;2024-03-22T00:18:15;95551.28;;;10.47;77.10
75051;BME280;63628;47.656;11.310;2024-03-22T00:20:41;95552.09;;;10.47;76.60
75051;BME280;63628;47.656;11.310;2024-03-22T00:23:06;95549.84;;;10.51;76.72
75051;BME280;63628;47.656;11.310;2024-03-22T00:25:32;95550.75;;;9.61;73.86
75051;BME280;63628;47.656;11.310;2024-03-22T00:27:57;95544.88;;;10.16;77.34
75051;BME280;63628;47.656;11.310;2024-03-22T00:30:23;95536.88;;;10.36;77.54
75051;BME280;63628;47.656;11.310;2024-03-22T00:32:49;95538.91;;;10.41;76.66
75051;BME280;63628;47.656;11.310;2024-03-22T00:35:14;95534.25;;;10.30;73.06
75051;BME280;63628;47.656;11.310;2024-03-22T00:37:40;95540.97;;;10.32;76.96
75051;BME280;63628;47.656;11.310;2024-03-22T00:40:06;95538.69;;;10.42;76.73
75051;BME280;63628;47.656;11.310;2024-03-22T00:42:32;95535.78;;;10.51;76.34
75051;BME280;63628;47.656;11.310;2024-03-22T00:44:58;95540.50;;;10.48;76.17
75051;BME280;63628;47.656;11.310;2024-03-22T00:47:23;95543.13;;;10.48;76.31
75051;BME280;63628;47.656;11.310;2024-03-22T00:49:49;95539.06;;;10.46;76.47
75051;BME280;63628;47.656;11.310;2024-03-22T00:52:15;95527.69;;;10.45;76.64
75051;BME280;63628;47.656;11.310;2024-03-22T00:54:41;95520.78;;;10.44;76.13
75051;BME280;63628;47.656;11.310;2024-03-22T00:57:06;95520.78;;;10.44;76.09
75051;BME280;63628;47.656;11.310;2024-03-22T00:59:32;95521.38;;;10.46;76.13
75051;BME280;63628;47.656;11.310;2024-03-22T01:01:58;95519.31;;;10.48;76.30
75051;BME280;63628;47.656;11.310;2024-03-22T01:04:24;95514.66;;;10.44;75.87
75051;BME280;63628;47.656;11.310;2024-03-22T01:06:49;95514.69;;;10.37;76.62
75051;BME280;63628;47.656;11.310;2024-03-22T01:09:15;95515.31;;;10.33;76.72
75051;BME280;63628;47.656;11.310;2024-03-22T01:11:40;95518.13;;;10.38;76.89
75051;BME280;63628;47.656;11.310;2024-03-22T01:14:06;95512.44;;;10.41;76.23
75051;BME280;63628;47.656;11.310;2024-03-22T01:16:31;95511.66;;;10.34;76.84
75051;BME280;63628;47.656;11.310;2024-03-22T01:18:57;95505.59;;;10.27;77.52
75051;BME280;63628;47.656;11.310;2024-03-22T01:21:22;95504.13;;;10.31;76.78
75051;BME280;63628;47.656;11.310;2024-03-22T01:23:53;95500.69;;;10.30;77.06
75051;BME280;63628;47.656;11.310;2024-03-22T01:26:19;95501.91;;;10.28;76.41
75051;BME280;63628;47.656;11.310;2024-03-22T01:28:46;95498.47;;;10.27;76.55
75051;BME280;63628;47.656;11.310;2024-03-22T01:31:11;95491.28;;;10.34;76.64
75051;BME280;63628;47.656;11.310;2024-03-22T01:33:37;95501.66;;;10.36;76.46
75051;BME280;63628;47.656;11.310;2024-03-22T01:36:03;95499.06;;;10.29;76.46
75051;BME280;63628;47.656;11.310;2024-03-22T01:38:31;95490.91;;;10.31;76.32
75051;BME280;63628;47.656;11.310;2024-03-22T01:40:56;95495.97;;;10.32;76.68
75051;BME280;63628;47.656;11.310;2024-03-22T01:43:22;95498.59;;;10.39;76.17
75051;BME280;63628;47.656;11.310;2024-03-22T01:45:48;95494.56;;;10.30;76.38
75051;BME280;63628;47.656;11.310;2024-03-22T01:48:14;95487.03;;;10.33;75.97
75051;BME280;63628;47.656;11.310;2024-03-22T01:50:39;95482.75;;;10.32;75.70
75051;BME280;63628;47.656;11.310;2024-03-22T01:53:05;95473.19;;;10.31;76.11
75051;BME280;63628;47.656;11.310;2024-03-22T01:55:31;95475.47;;;10.28;76.39
75051;BME280;63628;47.656;11.310;2024-03-22T01:57:56;95465.69;;;10.28;76.17
75051;BME280;63628;47.656;11.310;2024-03-22T02:00:22;95464.88;;;10.28;76.56
75051;BME280;63628;47.656;11.310;2024-03-22T02:02:48;95460.41;;;10.28;76.11
75051;BME280;63628;47.656;11.310;2024-03-22T02:05:17;95458.59;;;10.22;76.27
75051;BME280;63628;47.656;11.310;2024-03-22T02:07:47;95453.91;;;10.24;76.43
75051;BME280;63628;47.656;11.310;2024-03-22T02:10:14;95448.63;;;10.24;76.45
75051;BME280;63628;47.656;11.310;2024-03-22T02:12:40;95452.47;;;10.28;76.38
75051;BME280;63628;47.656;11.310;2024-03-22T02:15:07;95451.91;;;9.81;76.13
75051;BME280;63628;47.656;11.310;2024-03-22T02:17:34;95446.84;;;10.11;76.37
75051;BME280;63628;47.656;11.310;2024-03-22T02:20:00;95440.75;;;10.11;76.98
75051;BME280;63628;47.656;11.310;2024-03-22T02:22:26;95444.19;;;10.11;76.43
75051;BME280;63628;47.656;11.310;2024-03-22T02:24:52;95435.63;;;10.16;76.75
75051;BME280;63628;47.656;11.310;2024-03-22T02:27:18;95437.47;;;10.15;76.25
75051;BME280;63628;47.656;11.310;2024-03-22T02:29:44;95433.19;;;10.14;76.33
75051;BME280;63628;47.656;11.310;2024-03-22T02:32:09;95434.81;;;10.15;76.71
75051;BME280;63628;47.656;11.310;2024-03-22T02:34:35;95424.44;;;10.21;75.98
75051;BME280;63628;47.656;11.310;2024-03-22T02:37:01;95423.44;;;10.15;75.36
75051;BME280;63628;47.656;11.310;2024-03-22T02:39:27;95427.09;;;10.14;75.96
75051;BME280;63628;47.656;11.310;2024-03-22T02:41:54;95427.16;;;10.07;76.42
75051;BME280;63628;47.656;11.310;2024-03-22T02:44:20;95426.72;;;10.10;76.13
75051;BME280;63628;47.656;11.310;2024-03-22T02:46:45;95427.75;;;10.09;76.27
75051;BME280;63628;47.656;11.310;2024-03-22T02:49:11;95422.66;;;10.08;76.76
75051;BME280;63628;47.656;11.310;2024-03-22T02:51:36;95422.88;;;10.06;77.08
75051;BME280;63628;47.656;11.310;2024-03-22T02:54:02;95415.97;;;10.05;76.54
75051;BME280;63628;47.656;11.310;2024-03-22T02:56:28;95406.75;;;10.14;75.94
75051;BME280;63628;47.656;11.310;2024-03-22T02:58:53;95407.38;;;10.10;75.85
75051;BME280;63628;47.656;11.310;2024-03-22T03:01:19;95395.84;;;10.04;76.31
75051;BME280;63628;47.656;11.310;2024-03-22T03:03:44;95393.84;;;10.00;77.00
75051;BME280;63628;47.656;11.310;2024-03-22T03:06:10;95388.88;;;10.10;75.41
75051;BME280;63628;47.656;11.310;2024-03-22T03:08:39;95392.56;;;10.09;75.79
75051;BME280;63628;47.656;11.310;2024-03-22T03:11:04;95391.75;;;10.08;76.47
75051;BME280;63628;47.656;11.310;2024-03-22T03:13:30;95387.72;;;9.99;76.21
75051;BME280;63628;47.656;11.310;2024-03-22T03:15:57;95391.03;;;9.95;76.73
75051;BME280;63628;47.656;11.310;2024-03-22T03:18:22;95387.31;;;10.02;76.64
75051;BME280;63628;47.656;11.310;2024-03-22T03:20:48;95385.53;;;9.96;76.51
75051;BME280;63628;47.656;11.310;2024-03-22T03:23:13;95391.03;;;9.95;76.89
75051;BME280;63628;47.656;11.310;2024-03-22T03:25:39;95382.66;;;9.98;76.33
75051;BME280;63628;47.656;11.310;2024-03-22T03:28:05;95383.72;;;9.90;76.34
75051;BME280;63628;47.656;11.310;2024-03-22T03:30:34;95384.13;;;9.94;76.30
75051;BME280;63628;47.656;11.310;2024-03-22T03:33:00;95391.28;;;9.87;77.11
75051;BME280;63628;47.656;11.310;2024-03-22T03:35:26;95386.59;;;9.89;76.73
75051;BME280;63628;47.656;11.310;2024-03-22T03:37:52;95383.34;;;9.87;77.16
75051;BME280;63628;47.656;11.310;2024-03-22T03:40:18;95374.78;;;9.91;76.41
75051;BME280;63628;47.656;11.310;2024-03-22T03:42:44;95374.78;;;9.91;75.67
75051;BME280;63628;47.656;11.310;2024-03-22T03:45:09;95383.00;;;6.92;73.20
75051;BME280;63628;47.656;11.310;2024-03-22T03:47:35;95375.44;;;8.71;81.28
75051;BME280;63628;47.656;11.310;2024-03-22T03:50:00;95369.28;;;9.54;78.45
75051;BME280;63628;47.656;11.310;2024-03-22T03:52:26;95372.22;;;9.71;76.57
75051;BME280;63628;47.656;11.310;2024-03-22T03:54:51;95371.63;;;9.76;76.71
75051;BME280;63628;47.656;11.310;2024-03-22T03:57:17;95377.91;;;9.75;76.59
75051;BME280;63628;47.656;11.310;2024-03-22T03:59:43;95377.50;;;9.71;77.22
75051;BME280;63628;47.656;11.310;2024-03-22T04:02:08;95378.75;;;9.75;76.04
75051;BME280;63628;47.656;11.310;2024-03-22T04:04:34;95369.63;;;9.27;77.44
75051;BME280;63628;47.656;11.310;2024-03-22T04:06:59;95369.25;;;9.61;77.08
75051;BME280;63628;47.656;11.310;2024-03-22T04:09:25;95373.06;;;9.65;76.77
75051;BME280;63628;47.656;11.310;2024-03-22T04:11:50;95377.09;;;8.65;71.81
75051;BME280;63628;47.656;11.310;2024-03-22T04:14:16;95377.19;;;9.54;77.80
75051;BME280;63628;47.656;11.310;2024-03-22T04:16:41;95377.38;;;9.60;77.48
75051;BME280;63628;47.656;11.310;2024-03-22T04:19:07;95376.75;;;9.64;73.49
75051;BME280;63628;47.656;11.310;2024-03-22T04:21:33;95371.03;;;9.67;76.27
75051;BME280;63628;47.656;11.310;2024-03-22T04:23:58;95370.03;;;9.62;76.36
75051;BME280;63628;47.656;11.310;2024-03-22T04:26:24;95370.84;;;9.62;76.97
75051;BME280;63628;47.656;11.310;2024-03-22T04:28:49;95368.81;;;9.64;76.51
75051;BME280;63628;47.656;11.310;2024-03-22T04:31:15;95365.56;;;9.62;76.68
75051;BME280;63628;47.656;11.310;2024-03-22T04:33:41;95354.63;;;9.59;76.91
75051;BME280;63628;47.656;11.310;2024-03-22T04:36:07;95359.91;;;9.59;76.89
75051;BME280;63628;47.656;11.310;2024-03-22T04:38:35;95350.56;;;9.56;76.63
75051;BME280;63628;47.656;11.310;2024-03-22T04:41:00;95355.25;;;9.54;76.90
75051;BME280;63628;47.656;11.310;2024-03-22T04:43:27;95353.25;;;9.49;72.42
75051;BME280;63628;47.656;11.310;2024-03-22T04:45:53;95355.63;;;9.58;76.05
75051;BME280;63628;47.656;11.310;2024-03-22T04:48:20;95355.16;;;8.32;72.21
75051;BME280;63628;47.656;11.310;2024-03-22T04:50:52;95355.69;;;8.93;77.64
75051;BME280;63628;47.656;11.310;2024-03-22T04:53:19;95348.63;;;9.38;76.69
75051;BME280;63628;47.656;11.310;2024-03-22T04:55:46;95355.50;;;9.46;76.78
75051;BME280;63628;47.656;11.310;2024-03-22T04:58:13;95352.63;;;9.54;75.97
75051;BME280;63628;47.656;11.310;2024-03-22T05:00:40;95353.81;;;9.58;75.06
75051;BME280;63628;47.656;11.310;2024-03-22T05:03:05;95359.59;;;9.42;73.99
75051;BME280;63628;47.656;11.310;2024-03-22T05:05:31;95350.59;;;9.49;75.61
75051;BME280;63628;47.656;11.310;2024-03-22T05:07:56;95350.47;;;9.38;76.30
75051;BME280;63628;47.656;11.310;2024-03-22T05:10:22;95352.28;;;9.37;76.32
75051;BME280;63628;47.656;11.310;2024-03-22T05:12:48;95347.22;;;9.36;77.17
75051;BME280;63628;47.656;11.310;2024-03-22T05:15:13;95347.19;;;9.42;76.06
75051;BME280;63628;47.656;11.310;2024-03-22T05:17:39;95339.16;;;9.24;76.11
75051;BME280;63628;47.656;11.310;2024-03-22T05:20:07;95351.50;;;9.30;77.54
75051;BME280;63628;47.656;11.310;2024-03-22T05:22:39;95343.38;;;9.32;76.86
75051;BME280;63628;47.656;11.310;2024-03-22T05:25:05;95354.50;;;9.40;76.04
75051;BME280;63628;47.656;11.310;2024-03-22T05:27:31;95346.47;;;9.22;77.44
75051;BME280;63628;47.656;11.310;2024-03-22T05:29:58;95347.47;;;9.28;76.40
75051;BME280;63628;47.656;11.310;2024-03-22T05:32:24;95348.06;;;8.72;70.18
75051;BME280;63628;47.656;11.310;2024-03-22T05:34:51;95345.06;;;9.19;76.29
75051;BME280;63628;47.656;11.310;2024-03-22T05:37:16;95340.78;;;9.25;76.58
75051;BME280;63628;47.656;11.310;2024-03-22T05:39:42;95338.91;;;9.32;76.15
75051;BME280;63628;47.656;11.310;2024-03-22T05:42:08;95336.69;;;9.29;76.55
75051;BME280;63628;47.656;11.310;2024-03-22T05:44:34;95333.47;;;9.20;76.26
75051;BME280;63628;47.656;11.310;2024-03-22T05:46:59;95332.03;;;9.25;75.79
75051;BME280;63628;47.656;11.310;2024-03-22T05:49:25;95331.84;;;9.26;75.72
75051;BME280;63628;47.656;11.310;2024-03-22T05:51:51;95330.84;;;9.20;71.34
75051;BME280;63628;47.656;11.310;2024-03-22T05:54:16;95336.09;;;6.61;77.54
75051;BME280;63628;47.656;11.310;2024-03-22T05:56:42;95328.16;;;8.69;78.15
75051;BME280;63628;47.656;11.310;2024-03-22T05:59:08;95335.50;;;7.14;68.16
75051;BME280;63628;47.656;11.310;2024-03-22T06:01:33;95330.22;;;7.88;81.30
75051;BME280;63628;47.656;11.310;2024-03-22T06:03:59;95323.88;;;8.81;76.67
75051;BME280;63628;47.656;11.310;2024-03-22T06:06:26;95319.09;;;9.03;75.52
75051;BME280;63628;47.656;11.310;2024-03-22T06:08:52;95319.09;;;9.03;76.10
75051;BME280;63628;47.656;11.310;2024-03-22T06:11:19;95322.56;;;9.10;76.08
75051;BME280;63628;47.656;11.310;2024-03-22T06:13:45;95319.69;;;8.21;69.36
75051;BME280;63628;47.656;11.310;2024-03-22T06:16:10;95319.22;;;6.49;79.65
75051;BME280;63628;47.656;11.310;2024-03-22T06:18:36;95321.09;;;8.56;77.94
75051;BME280;63628;47.656;11.310;2024-03-22T06:21:02;95314.72;;;8.84;74.82
75051;BME280;63628;47.656;11.310;2024-03-22T06:23:28;95322.06;;;8.69;76.82
75051;BME280;63628;47.656;11.310;2024-03-22T06:25:55;95319.13;;;8.97;75.88
75051;BME280;63628;47.656;11.310;2024-03-22T06:28:21;95308.97;;;9.00;75.75
75051;BME280;63628;47.656;11.310;2024-03-22T06:30:47;95311.00;;;8.98;76.27
75051;BME280;63628;47.656;11.310;2024-03-22T06:33:13;95312.25;;;8.96;76.50
75051;BME280;63628;47.656;11.310;2024-03-22T06:35:39;95305.72;;;8.98;76.19
75051;BME280;63628;47.656;11.310;2024-03-22T06:38:04;95300.03;;;9.01;75.50
75051;BME280;63628;47.656;11.310;2024-03-22T06:40:30;95292.53;;;8.98;76.37
75051;BME280;63628;47.656;11.310;2024-03-22T06:42:56;95303.06;;;9.05;75.58
75051;BME280;63628;47.656;11.310;2024-03-22T06:45:22;95303.47;;;9.02;76.14
75051;BME280;63628;47.656;11.310;2024-03-22T06:47:47;95305.41;;;8.75;76.76
75051;BME280;63628;47.656;11.310;2024-03-22T06:50:13;95301.28;;;8.92;76.12
75051;BME280;63628;47.656;11.310;2024-03-22T06:52:38;95303.31;;;8.97;76.09
75051;BME280;63628;47.656;11.310;2024-03-22T06:55:04;95303.13;;;8.92;75.52
75051;BME280;63628;47.656;11.310;2024-03-22T06:57:30;95305.69;;;8.40;80.53
75051;BME280;63628;47.656;11.310;2024-03-22T06:59:56;95306.50;;;8.21;81.63
75051;BME280;63628;47.656;11.310;2024-03-22T07:02:21;95309.97;;;8.02;83.63
75051;BME280;63628;47.656;11.310;2024-03-22T07:04:47;95308.53;;;8.39;82.96
75051;BME280;63628;47.656;11.310;2024-03-22T07:07:12;95304.22;;;8.71;78.68
75051;BME280;63628;47.656;11.310;2024-03-22T07:09:38;95309.25;;;8.79;80.41
75051;BME280;63628;47.656;11.310;2024-03-22T07:12:05;95307.16;;;8.94;79.84
75051;BME280;63628;47.656;11.310;2024-03-22T07:14:30;95300.47;;;8.92;76.45
75051;BME280;63628;47.656;11.310;2024-03-22T07:16:56;95303.69;;;9.00;75.69
75051;BME280;63628;47.656;11.310;2024-03-22T07:19:21;95305.25;;;9.21;79.63
75051;BME280;63628;47.656;11.310;2024-03-22T07:21:47;95306.91;;;9.15;78.08
75051;BME280;63628;47.656;11.310;2024-03-22T07:24:13;95301.44;;;9.04;82.65
75051;BME280;63628;47.656;11.310;2024-03-22T07:26:39;95307.56;;;8.98;80.71
75051;BME280;63628;47.656;11.310;2024-03-22T07:29:05;95302.84;;;9.06;76.13
75051;BME280;63628;47.656;11.310;2024-03-22T07:31:30;95300.69;;;9.35;77.58
75051;BME280;63628;47.656;11.310;2024-03-22T07:33:56;95297.47;;;9.33;75.76
75051;BME280;63628;47.656;11.310;2024-03-22T07:36:22;95294.81;;;9.96;82.40
75051;BME280;63628;47.656;11.310;2024-03-22T07:38:47;95284.72;;;10.11;75.11
75051;BME280;63628;47.656;11.310;2024-03-22T07:41:16;95286.94;;;11.90;76.40
75051;BME280;63628;47.656;11.310;2024-03-22T07:43:41;95285.47;;;12.64;71.38
75051;BME280;63628;47.656;11.310;2024-03-22T07:46:07;95292.72;;;12.69;72.49
75051;BME280;63628;47.656;11.310;2024-03-22T07:48:32;95292.34;;;10.69;70.96
75051;BME280;63628;47.656;11.310;2024-03-22T07:50:58;95294.06;;;11.60;75.79
75051;BME280;63628;47.656;11.310;2024-03-22T07:53:24;95289.03;;;10.55;74.94
75051;BME280;63628;47.656;11.310;2024-03-22T07:55:50;95283.75;;;12.47;73.71
75051;BME280;63628;47.656;11.310;2024-03-22T07:58:16;95281.13;;;13.22;66.99
75051;BME280;63628;47.656;11.310;2024-03-22T08:00:41;95279.28;;;12.99;71.32
75051;BME280;63628;47.656;11.310;2024-03-22T08:03:08;95271.59;;;15.05;66.02
75051;BME280;63628;47.656;11.310;2024-03-22T08:05:39;95285.31;;;11.89;67.61
75051;BME280;63628;47.656;11.310;2024-03-22T08:08:05;95267.56;;;13.52;70.20
75051;BME280;63628;47.656;11.310;2024-03-22T08:10:30;95267.59;;;14.86;62.95
75051;BME280;63628;47.656;11.310;2024-03-22T08:12:56;95261.50;;;14.69;62.32
75051;BME280;63628;47.656;11.310;2024-03-22T08:15:22;95262.97;;;14.09;62.36
75051;BME280;63628;47.656;11.310;2024-03-22T08:17:47;95255.09;;;14.48;64.88
75051;BME280;63628;47.656;11.310;2024-03-22T08:20:13;95251.19;;;14.39;64.71
75051;BME280;63628;47.656;11.310;2024-03-22T08:22:38;95245.63;;;13.73;61.89
75051;BME280;63628;47.656;11.310;2024-03-22T08:25:04;95255.53;;;15.71;61.92
75051;BME280;63628;47.656;11.310;2024-03-22T08:27:33;95241.19;;;14.84;62.40
75051;BME280;63628;47.656;11.310;2024-03-22T08:29:59;95240.38;;;15.54;60.27
75051;BME280;63628;47.656;11.310;2024-03-22T08:32:25;95241.75;;;15.57;61.84
75051;BME280;63628;47.656;11.310;2024-03-22T08:34:51;95238.34;;;16.63;56.33
75051;BME280;63628;47.656;11.310;2024-03-22T08:37:16;95233.38;;;17.49;53.10
75051;BME280;63628;47.656;11.310;2024-03-22T08:39:43;95227.78;;;16.04;59.92
75051;BME280;63628;47.656;11.310;2024-03-22T08:42:08;95237.69;;;15.01;65.82
75051;BME280;63628;47.656;11.310;2024-03-22T08:44:35;95215.81;;;17.84;55.73
75051;BME280;63628;47.656;11.310;2024-03-22T08:47:00;95212.06;;;17.95;53.95
75051;BME280;63628;47.656;11.310;2024-03-22T08:49:26;95214.16;;;17.62;55.50
75051;BME280;63628;47.656;11.310;2024-03-22T08:51:52;95213.41;;;17.82;54.46
75051;BME280;63628;47.656;11.310;2024-03-22T08:54:17;95212.47;;;17.31;56.92
75051;BME280;63628;47.656;11.310;2024-03-22T08:56:43;95206.66;;;14.17;59.79
75051;BME280;63628;47.656;11.310;2024-03-22T08:59:08;95219.47;;;12.10;68.36
75051;BME280;63628;47.656;11.310;2024-03-22T09:01:34;95198.09;;;17.62;54.92
75051;BME280;63628;47.656;11.310;2024-03-22T09:04:00;95194.03;;;16.67;53.16
75051;BME280;63628;47.656;11.310;2024-03-22T09:06:26;95198.09;;;15.41;64.97
75051;BME280;63628;47.656;11.310;2024-03-22T09:08:51;95194.13;;;16.03;62.29
75051;BME280;63628;47.656;11.310;2024-03-22T09:11:17;95186.81;;;18.62;51.55
75051;BME280;63628;47.656;11.310;2024-03-22T09:13:43;95180.31;;;18.88;51.20
75051;BME280;63628;47.656;11.310;2024-03-22T09:16:15;95183.59;;;17.48;55.13
75051;BME280;63628;47.656;11.310;2024-03-22T09:18:41;95182.25;;;17.35;51.04
75051;BME280;63628;47.656;11.310;2024-03-22T09:21:06;95188.78;;;16.40;57.25
75051;BME280;63628;47.656;11.310;2024-03-22T09:23:34;95172.00;;;18.85;47.58
75051;BME280;63628;47.656;11.310;2024-03-22T09:25:59;95177.16;;;16.19;48.00
75051;BME280;63628;47.656;11.310;2024-03-22T09:28:25;95170.81;;;17.96;49.04
75051;BME280;63628;47.656;11.310;2024-03-22T09:30:51;95172.72;;;16.87;53.57
75051;BME280;63628;47.656;11.310;2024-03-22T09:33:17;95171.59;;;16.73;50.40
75051;BME280;63628;47.656;11.310;2024-03-22T09:35:43;95171.91;;;15.92;50.69
75051;BME280;63628;47.656;11.310;2024-03-22T09:38:08;95172.00;;;16.07;52.49
75051;BME280;63628;47.656;11.310;2024-03-22T09:40:35;95157.16;;;16.69;51.23
75051;BME280;63628;47.656;11.310;2024-03-22T09:43:06;95162.69;;;15.73;53.59
75051;BME280;63628;47.656;11.310;2024-03-22T09:45:32;95163.47;;;13.93;59.20
75051;BME280;63628;47.656;11.310;2024-03-22T09:47:58;95157.31;;;15.68;53.60
75051;BME280;63628;47.656;11.310;2024-03-22T09:50:24;95162.97;;;15.49;53.22
75051;BME280;63628;47.656;11.310;2024-03-22T09:52:52;95156.78;;;18.55;47.97
75051;BME280;63628;47.656;11.310;2024-03-22T09:55:22;95152.94;;;15.89;49.68
75051;BME280;63628;47.656;11.310;2024-03-22T09:57:49;95150.19;;;16.21;49.35
75051;BME280;63628;47.656;11.310;2024-03-22T10:00:18;95147.13;;;18.69;43.73
75051;BME280;63628;47.656;11.310;2024-03-22T10:02:46;95140.16;;;18.68;42.31
75051;BME280;63628;47.656;11.310;2024-03-22T10:05:12;95139.78;;;16.71;44.68
75051;BME280;63628;47.656;11.310;2024-03-22T10:07:39;95139.31;;;15.58;45.18
75051;BME280;63628;47.656;11.310;2024-03-22T10:10:04;95138.44;;;15.20;51.10
75051;BME280;63628;47.656;11.310;2024-03-22T10:12:30;95128.78;;;17.71;42.77
75051;BME280;63628;47.656;11.310;2024-03-22T10:14:56;95131.06;;;16.34;51.11
75051;BME280;63628;47.656;11.310;2024-03-22T10:17:21;95141.47;;;15.29;44.21
75051;BME280;63628;47.656;11.310;2024-03-22T10:19:50;95136.16;;;15.98;46.11
75051;BME280;63628;47.656;11.310;2024-03-22T10:22:17;95128.97;;;15.99;45.84
75051;BME280;63628;47.656;11.310;2024-03-22T10:24:43;95131.88;;;15.33;46.66
75051;BME280;63628;47.656;11.310;2024-03-22T10:27:08;95123.75;;;16.66;49.25
75051;BME280;63628;47.656;11.310;2024-03-22T10:29:35;95118.56;;;17.53;42.39
75051;BME280;63628;47.656;11.310;2024-03-22T10:32:01;95110.88;;;16.63;43.80
75051;BME280;63628;47.656;11.310;2024-03-22T10:34:27;95104.06;;;16.98;46.87
75051;BME280;63628;47.656;11.310;2024-03-22T10:36:55;95107.59;;;17.29;44.00
75051;BME280;63628;47.656;11.310;2024-03-22T10:39:23;95102.09;;;16.68;44.82
75051;BME280;63628;47.656;11.310;2024-03-22T10:41:49;95103.56;;;16.38;44.36
75051;BME280;63628;47.656;11.310;2024-03-22T10:44:16;95096.31;;;16.96;42.40
75051;BME280;63628;47.656;11.310;2024-03-22T10:46:46;95092.31;;;17.09;50.25
75051;BME280;63628;47.656;11.310;2024-03-22T10:49:17;95097.47;;;16.48;41.42
75051;BME280;63628;47.656;11.310;2024-03-22T10:51:57;95095.34;;;15.34;43.95
75051;BME280;63628;47.656;11.310;2024-03-22T10:54:26;95090.69;;;16.93;44.68
75051;BME280;63628;47.656;11.310;2024-03-22T10:56:53;95087.84;;;16.52;42.84
75051;BME280;63628;47.656;11.310;2024-03-22T10:59:20;95088.19;;;16.13;42.47
75051;BME280;63628;47.656;11.310;2024-03-22T11:01:47;95083.00;;;16.44;43.84
75051;BME280;63628;47.656;11.310;2024-03-22T11:04:16;95074.97;;;16.39;49.28
75051;BME280;63628;47.656;11.310;2024-03-22T11:06:47;95080.81;;;16.26;44.73
75051;BME280;63628;47.656;11.310;2024-03-22T11:09:20;95059.16;;;17.20;40.36
75051;BME280;63628;47.656;11.310;2024-03-22T11:11:47;95065.00;;;18.09;42.39
75051;BME280;63628;47.656;11.310;2024-03-22T11:14:12;95065.25;;;16.85;40.95
75051;BME280;63628;47.656;11.310;2024-03-22T11:16:38;95065.56;;;15.74;47.50
75051;BME280;63628;47.656;11.310;2024-03-22T11:19:04;95051.41;;;17.14;45.52
75051;BME280;63628;47.656;11.310;2024-03-22T11:21:33;95050.06;;;17.06;43.17
75051;BME280;63628;47.656;11.310;2024-03-22T11:24:02;95046.84;;;16.99;43.20
75051;BME280;63628;47.656;11.310;2024-03-22T11:26:27;95051.50;;;15.19;56.49
75051;BME280;63628;47.656;11.310;2024-03-22T11:28:53;95044.25;;;15.84;53.56
75051;BME280;63628;47.656;11.310;2024-03-22T11:31:18;95044.69;;;14.75;56.53
75051;BME280;63628;47.656;11.310;2024-03-22T11:33:47;95037.09;;;15.90;48.58
75051;BME280;63628;47.656;11.310;2024-03-22T11:36:13;95038.63;;;16.33;44.58
75051;BME280;63628;47.656;11.310;2024-03-22T11:38:39;95034.41;;;15.90;44.27
75051;BME280;63628;47.656;11.310;2024-03-22T11:41:05;95038.41;;;15.13;49.23
75051;BME280;63628;47.656;11.310;2024-03-22T11:43:31;95025.59;;;15.89;45.67
75051;BME280;63628;47.656;11.310;2024-03-22T11:45:57;95032.47;;;13.14;64.69
75051;BME280;63628;47.656;11.310;2024-03-22T11:48:23;95018.94;;;15.12;48.28
75051;BME280;63628;47.656;11.310;2024-03-22T11:50:49;95013.38;;;16.03;46.23
75051;BME280;63628;47.656;11.310;2024-03-22T11:53:16;95013.50;;;16.29;43.38
75051;BME280;63628;47.656;11.310;2024-03-22T11:55:42;95014.31;;;16.34;44.01
75051;BME280;63628;47.656;11.310;2024-03-22T11:58:11;95002.59;;;16.45;47.41
75051;BME280;63628;47.656;11.310;2024-03-22T12:00:36;94995.44;;;15.89;47.04
75051;BME280;63628;47.656;11.310;2024-03-22T12:03:05;94996.19;;;16.52;45.49
75051;BME280;63628;47.656;11.310;2024-03-22T12:05:31;94985.81;;;16.65;44.92
75051;BME280;63628;47.656;11.310;2024-03-22T12:07:57;94989.50;;;16.39;44.72
75051;BME280;63628;47.656;11.310;2024-03-22T12:10:22;94984.16;;;16.39;47.32
75051;BME280;63628;47.656;11.310;2024-03-22T12:12:48;94976.13;;;16.34;46.82
75051;BME280;63628;47.656;11.310;2024-03-22T12:15:14;94981.22;;;14.18;60.75
75051;BME280;63628;47.656;11.310;2024-03-22T12:17:39;94969.34;;;16.11;45.02
75051;BME280;63628;47.656;11.310;2024-03-22T12:20:08;94964.97;;;15.37;53.91
75051;BME280;63628;47.656;11.310;2024-03-22T12:22:34;94959.22;;;16.18;47.72
75051;BME280;63628;47.656;11.310;2024-03-22T12:25:00;94948.97;;;17.03;45.72
75051;BME280;63628;47.656;11.310;2024-03-22T12:27:25;94951.28;;;16.33;46.27
75051;BME280;63628;47.656;11.310;2024-03-22T12:29:51;94955.22;;;16.15;47.20
75051;BME280;63628;47.656;11.310;2024-03-22T12:32:16;94947.25;;;16.26;46.88
75051;BME280;63628;47.656;11.310;2024-03-22T12:34:42;94943.09;;;16.96;45.40
75051;BME280;63628;47.656;11.310;2024-03-22T12:37:09;94940.44;;;15.82;51.55
75051;BME280;63628;47.656;11.310;2024-03-22T12:39:35;94936.59;;;16.31;45.84
75051;BME280;63628;47.656;11.310;2024-03-22T12:42:01;94933.38;;;16.34;44.03
75051;BME280;63628;47.656;11.310;2024-03-22T12:44:27;94926.72;;;16.52;46.10
75051;BME280;63628;47.656;11.310;2024-03-22T12:46:52;94923.47;;;16.24;44.02